sensor_id;sensor_type;location;lat;lon;timestamp;P1;durP1;ratioP1;P2;durP2;ratioP2
18286;SDS011;9269;50.838;12.094;2023-04-06T00:01:14;15.33;;;13.60;;
18286;SDS011;9269;50.838;12.094;2023-04-06T00:03:43;15.07;;;13.67;;
18286;SDS011;9269;50.838;12.094;2023-04-06T00:06:31;14.80;;;13.20;;
18286;SDS011;9269;50.838;12.094;2023-04-06T00:09:00;17.13;;;14.00;;
18286;SDS011;9269;50.838;12.094;2023-04-06T00:11:31;19.07;;;14.00;;
18286;SDS011;9269;50.838;12.094;2023-04-06T00:14:04;16.97;;;13.70;;
18286;SDS011;9269;50.838;12.094;2023-04-06T00:16:37;15.17;;;13.33;;
18286;SDS011;9269;50.838;12.094;2023-04-06T00:19:09;14.93;;;12.60;;
18286;SDS011;9269;50.838;12.094;2023-04-06T00:21:41;14.27;;;12.83;;
18286;SDS011;9269;50.838;12.094;2023-04-06T00:24:11;16.17;;;13.70;;
18286;SDS011;9269;50.838;12.094;2023-04-06T00:26:46;14.00;;;12.50;;
18286;SDS011;9269;50.838;12.094;2023-04-06T00:29:17;15.67;;;12.53;;
18286;SDS011;9269;50.838;12.094;2023-04-06T00:31:49;14.20;;;12.70;;
18286;SDS011;9269;50.838;12.094;2023-04-06T00:34:18;14.40;;;12.63;;
18286;SDS011;9269;50.838;12.094;2023-04-06T00:36:46;14.57;;;12.53;;
18286;SDS011;9269;50.838;12.094;2023-04-06T00:39:16;16.47;;;13.63;;
18286;SDS011;9269;50.838;12.094;2023-04-06T00:41:49;15.93;;;13.50;;
18286;SDS011;9269;50.838;12.094;2023-04-06T00:44:23;17.03;;;15.03;;
18286;SDS011;9269;50.838;12.094;2023-04-06T00:46:56;15.47;;;13.83;;
18286;SDS011;9269;50.838;12.094;2023-04-06T00:49:25;16.23;;;13.83;;
18286;SDS011;9269;50.838;12.094;2023-04-06T00:51:55;14.87;;;13.20;;
18286;SDS011;9269;50.838;12.094;2023-04-06T00:54:24;15.97;;;14.17;;
18286;SDS011;9269;50.838;12.094;2023-04-06T00:56:53;15.97;;;14.30;;
18286;SDS011;9269;50.838;12.094;2023-04-06T00:59:24;17.67;;;15.57;;
18286;SDS011;9269;50.838;12.094;2023-04-06T01:01:55;15.27;;;13.73;;
18286;SDS011;9269;50.838;12.094;2023-04-06T01:04:25;16.67;;;14.43;;
18286;SDS011;9269;50.838;12.094;2023-04-06T01:06:59;15.03;;;12.67;;
18286;SDS011;9269;50.838;12.094;2023-04-06T01:09:30;16.30;;;13.53;;
18286;SDS011;9269;50.838;12.094;2023-04-06T01:12:06;14.27;;;12.80;;
18286;SDS011;9269;50.838;12.094;2023-04-06T01:14:39;12.50;;;11.20;;
18286;SDS011;9269;50.838;12.094;2023-04-06T01:17:10;12.07;;;10.77;;
18286;SDS011;9269;50.838;12.094;2023-04-06T01:19:44;13.37;;;11.10;;
18286;SDS011;9269;50.838;12.094;2023-04-06T01:22:16;12.63;;;11.50;;
18286;SDS011;9269;50.838;12.094;2023-04-06T01:25:04;13.33;;;11.07;;
18286;SDS011;9269;50.838;12.094;2023-04-06T01:27:53;16.53;;;12.70;;
18286;SDS011;9269;50.838;12.094;2023-04-06T01:30:41;13.13;;;11.80;;
18286;SDS011;9269;50.838;12.094;2023-04-06T01:33:29;12.90;;;11.57;;
18286;SDS011;9269;50.838;12.094;2023-04-06T01:36:17;13.33;;;11.07;;
18286;SDS011;9269;50.838;12.094;2023-04-06T01:38:50;12.47;;;11.17;;
18286;SDS011;9269;50.838;12.094;2023-04-06T01:41:26;16.93;;;12.03;;
18286;SDS011;9269;50.838;12.094;2023-04-06T01:44:15;13.43;;;12.03;;
18286;SDS011;9269;50.838;12.094;2023-04-06T01:47:04;14.67;;;12.17;;
18286;SDS011;9269;50.838;12.094;2023-04-06T01:49:52;13.60;;;12.20;;
18286;SDS011;9269;50.838;12.094;2023-04-06T01:52:27;13.00;;;11.53;;
18286;SDS011;9269;50.838;12.094;2023-04-06T01:54:59;12.67;;;11.33;;
18286;SDS011;9269;50.838;12.094;2023-04-06T01:57:29;12.43;;;10.87;;
18286;SDS011;9269;50.838;12.094;2023-04-06T01:59:57;14.17;;;12.57;;
18286;SDS011;9269;50.838;12.094;2023-04-06T02:02:26;12.70;;;11.50;;
18286;SDS011;9269;50.838;12.094;2023-04-06T02:04:55;16.10;;;11.83;;
18286;SDS011;9269;50.838;12.094;2023-04-06T02:07:23;13.83;;;11.77;;
18286;SDS011;9269;50.838;12.094;2023-04-06T02:09:53;14.43;;;13.03;;
18286;SDS011;9269;50.838;12.094;2023-04-06T02:12:23;13.63;;;12.23;;
18286;SDS011;9269;50.838;12.094;2023-04-06T02:14:52;14.20;;;12.70;;
18286;SDS011;9269;50.838;12.094;2023-04-06T02:17:20;13.10;;;11.77;;
18286;SDS011;9269;50.838;12.094;2023-04-06T02:19:48;12.00;;;10.83;;
18286;SDS011;9269;50.838;12.094;2023-04-06T02:22:16;12.03;;;10.73;;
18286;SDS011;9269;50.838;12.094;2023-04-06T02:24:45;11.90;;;10.27;;
18286;SDS011;9269;50.838;12.094;2023-04-06T02:27:14;11.83;;;10.20;;
18286;SDS011;9269;50.838;12.094;2023-04-06T02:29:43;11.00;;;9.90;;
18286;SDS011;9269;50.838;12.094;2023-04-06T02:32:12;11.73;;;10.37;;
18286;SDS011;9269;50.838;12.094;2023-04-06T02:34:40;10.00;;;9.00;;
18286;SDS011;9269;50.838;12.094;2023-04-06T02:37:09;11.23;;;8.83;;
18286;SDS011;9269;50.838;12.094;2023-04-06T02:39:37;10.50;;;8.53;;
18286;SDS011;9269;50.838;12.094;2023-04-06T02:42:06;9.87;;;7.93;;
18286;SDS011;9269;50.838;12.094;2023-04-06T02:44:35;8.77;;;7.80;;
18286;SDS011;9269;50.838;12.094;2023-04-06T02:47:06;9.83;;;8.03;;
18286;SDS011;9269;50.838;12.094;2023-04-06T02:49:34;8.87;;;7.97;;
18286;SDS011;9269;50.838;12.094;2023-04-06T02:52:03;9.93;;;7.40;;
18286;SDS011;9269;50.838;12.094;2023-04-06T02:54:31;9.60;;;7.83;;
18286;SDS011;9269;50.838;12.094;2023-04-06T02:56:59;10.57;;;8.33;;
18286;SDS011;9269;50.838;12.094;2023-04-06T02:59:28;9.50;;;7.17;;
18286;SDS011;9269;50.838;12.094;2023-04-06T03:01:56;9.47;;;8.50;;
18286;SDS011;9269;50.838;12.094;2023-04-06T03:04:26;9.23;;;8.17;;
18286;SDS011;9269;50.838;12.094;2023-04-06T03:06:54;10.07;;;8.50;;
18286;SDS011;9269;50.838;12.094;2023-04-06T03:09:25;10.07;;;8.10;;
18286;SDS011;9269;50.838;12.094;2023-04-06T03:11:54;9.10;;;8.20;;
18286;SDS011;9269;50.838;12.094;2023-04-06T03:14:24;10.43;;;7.97;;
18286;SDS011;9269;50.838;12.094;2023-04-06T03:16:52;9.87;;;8.40;;
18286;SDS011;9269;50.838;12.094;2023-04-06T03:19:20;9.07;;;7.97;;
18286;SDS011;9269;50.838;12.094;2023-04-06T03:21:50;9.27;;;8.37;;
18286;SDS011;9269;50.838;12.094;2023-04-06T03:24:19;9.13;;;8.10;;
18286;SDS011;9269;50.838;12.094;2023-04-06T03:26:47;8.60;;;7.73;;
18286;SDS011;9269;50.838;12.094;2023-04-06T03:29:15;10.77;;;8.30;;
18286;SDS011;9269;50.838;12.094;2023-04-06T03:32:03;8.73;;;7.83;;
18286;SDS011;9269;50.838;12.094;2023-04-06T03:34:33;9.37;;;8.37;;
18286;SDS011;9269;50.838;12.094;2023-04-06T03:37:03;9.40;;;8.10;;
18286;SDS011;9269;50.838;12.094;2023-04-06T03:39:36;9.13;;;7.73;;
18286;SDS011;9269;50.838;12.094;2023-04-06T03:42:04;9.53;;;8.20;;
18286;SDS011;9269;50.838;12.094;2023-04-06T03:44:33;8.47;;;7.67;;
18286;SDS011;9269;50.838;12.094;2023-04-06T03:47:02;10.57;;;8.37;;
18286;SDS011;9269;50.838;12.094;2023-04-06T03:49:30;10.80;;;8.07;;
18286;SDS011;9269;50.838;12.094;2023-04-06T03:51:59;9.67;;;7.93;;
18286;SDS011;9269;50.838;12.094;2023-04-06T03:54:29;8.13;;;7.30;;
18286;SDS011;9269;50.838;12.094;2023-04-06T03:56:57;8.07;;;7.30;;
18286;SDS011;9269;50.838;12.094;2023-04-06T03:59:26;8.27;;;7.47;;
18286;SDS011;9269;50.838;12.094;2023-04-06T04:01:55;8.77;;;7.90;;
18286;SDS011;9269;50.838;12.094;2023-04-06T04:04:23;8.97;;;8.07;;
18286;SDS011;9269;50.838;12.094;2023-04-06T04:06:51;9.20;;;8.17;;
18286;SDS011;9269;50.838;12.094;2023-04-06T04:09:20;9.30;;;8.40;;
18286;SDS011;9269;50.838;12.094;2023-04-06T04:11:50;9.57;;;8.57;;
18286;SDS011;9269;50.838;12.094;2023-04-06T04:14:18;8.50;;;7.50;;
18286;SDS011;9269;50.838;12.094;2023-04-06T04:16:47;8.73;;;7.83;;
18286;SDS011;9269;50.838;12.094;2023-04-06T04:19:15;8.20;;;7.40;;
18286;SDS011;9269;50.838;12.094;2023-04-06T04:21:44;8.97;;;8.07;;
18286;SDS011;9269;50.838;12.094;2023-04-06T04:24:13;8.87;;;7.80;;
18286;SDS011;9269;50.838;12.094;2023-04-06T04:26:42;9.40;;;7.90;;
18286;SDS011;9269;50.838;12.094;2023-04-06T04:29:12;8.07;;;7.30;;
18286;SDS011;9269;50.838;12.094;2023-04-06T04:31:40;8.20;;;7.37;;
18286;SDS011;9269;50.838;12.094;2023-04-06T04:34:08;9.20;;;8.40;;
18286;SDS011;9269;50.838;12.094;2023-04-06T04:36:37;8.20;;;7.47;;
18286;SDS011;9269;50.838;12.094;2023-04-06T04:39:08;8.40;;;7.30;;
18286;SDS011;9269;50.838;12.094;2023-04-06T04:41:36;9.10;;;7.73;;
18286;SDS011;9269;50.838;12.094;2023-04-06T04:44:04;8.00;;;7.20;;
18286;SDS011;9269;50.838;12.094;2023-04-06T04:46:34;8.27;;;7.40;;
18286;SDS011;9269;50.838;12.094;2023-04-06T04:49:02;9.67;;;7.30;;
18286;SDS011;9269;50.838;12.094;2023-04-06T04:51:31;11.07;;;7.90;;
18286;SDS011;9269;50.838;12.094;2023-04-06T04:54:00;8.03;;;7.23;;
18286;SDS011;9269;50.838;12.094;2023-04-06T04:56:28;8.93;;;6.83;;
18286;SDS011;9269;50.838;12.094;2023-04-06T04:58:57;8.00;;;7.30;;
18286;SDS011;9269;50.838;12.094;2023-04-06T05:01:25;8.87;;;6.63;;
18286;SDS011;9269;50.838;12.094;2023-04-06T05:03:55;8.70;;;7.10;;
18286;SDS011;9269;50.838;12.094;2023-04-06T05:06:24;7.20;;;6.40;;
18286;SDS011;9269;50.838;12.094;2023-04-06T05:08:52;8.40;;;7.13;;
18286;SDS011;9269;50.838;12.094;2023-04-06T05:11:21;7.77;;;7.00;;
18286;SDS011;9269;50.838;12.094;2023-04-06T05:13:49;7.60;;;6.80;;
18286;SDS011;9269;50.838;12.094;2023-04-06T05:16:18;8.60;;;7.77;;
18286;SDS011;9269;50.838;12.094;2023-04-06T05:18:47;8.83;;;7.93;;
18286;SDS011;9269;50.838;12.094;2023-04-06T05:21:17;7.93;;;7.13;;
18286;SDS011;9269;50.838;12.094;2023-04-06T05:23:46;8.67;;;7.77;;
18286;SDS011;9269;50.838;12.094;2023-04-06T05:26:14;9.17;;;7.37;;
18286;SDS011;9269;50.838;12.094;2023-04-06T05:28:42;9.23;;;7.53;;
18286;SDS011;9269;50.838;12.094;2023-04-06T05:31:11;8.63;;;7.43;;
18286;SDS011;9269;50.838;12.094;2023-04-06T05:33:41;8.87;;;7.80;;
18286;SDS011;9269;50.838;12.094;2023-04-06T05:36:09;7.60;;;6.90;;
18286;SDS011;9269;50.838;12.094;2023-04-06T05:38:42;8.07;;;7.03;;
18286;SDS011;9269;50.838;12.094;2023-04-06T05:41:10;10.67;;;7.83;;
18286;SDS011;9269;50.838;12.094;2023-04-06T05:43:39;8.30;;;7.50;;
18286;SDS011;9269;50.838;12.094;2023-04-06T05:46:07;10.00;;;8.57;;
18286;SDS011;9269;50.838;12.094;2023-04-06T05:48:35;8.43;;;7.63;;
18286;SDS011;9269;50.838;12.094;2023-04-06T05:51:04;10.10;;;7.90;;
18286;SDS011;9269;50.838;12.094;2023-04-06T05:53:33;8.70;;;7.80;;
18286;SDS011;9269;50.838;12.094;2023-04-06T05:56:03;8.60;;;7.73;;
18286;SDS011;9269;50.838;12.094;2023-04-06T05:58:32;10.97;;;7.50;;
18286;SDS011;9269;50.838;12.094;2023-04-06T06:01:00;7.43;;;6.73;;
18286;SDS011;9269;50.838;12.094;2023-04-06T06:03:29;7.63;;;6.83;;
18286;SDS011;9269;50.838;12.094;2023-04-06T06:06:01;7.27;;;6.57;;
18286;SDS011;9269;50.838;12.094;2023-04-06T06:08:31;10.13;;;7.60;;
18286;SDS011;9269;50.838;12.094;2023-04-06T06:10:59;7.57;;;6.67;;
18286;SDS011;9269;50.838;12.094;2023-04-06T06:13:30;7.97;;;6.60;;
18286;SDS011;9269;50.838;12.094;2023-04-06T06:15:59;8.03;;;7.20;;
18286;SDS011;9269;50.838;12.094;2023-04-06T06:18:31;7.87;;;7.07;;
18286;SDS011;9269;50.838;12.094;2023-04-06T06:21:00;8.93;;;6.93;;
18286;SDS011;9269;50.838;12.094;2023-04-06T06:23:28;7.30;;;6.57;;
18286;SDS011;9269;50.838;12.094;2023-04-06T06:25:56;7.97;;;6.97;;
18286;SDS011;9269;50.838;12.094;2023-04-06T06:28:25;7.80;;;7.00;;
18286;SDS011;9269;50.838;12.094;2023-04-06T06:30:54;7.67;;;6.97;;
18286;SDS011;9269;50.838;12.094;2023-04-06T06:33:23;7.83;;;6.90;;
18286;SDS011;9269;50.838;12.094;2023-04-06T06:35:52;7.10;;;6.40;;
18286;SDS011;9269;50.838;12.094;2023-04-06T06:38:21;7.60;;;6.80;;
18286;SDS011;9269;50.838;12.094;2023-04-06T06:40:49;7.93;;;7.23;;
18286;SDS011;9269;50.838;12.094;2023-04-06T06:43:18;9.47;;;7.27;;
18286;SDS011;9269;50.838;12.094;2023-04-06T06:45:46;7.20;;;6.47;;
18286;SDS011;9269;50.838;12.094;2023-04-06T06:48:16;8.73;;;7.63;;
18286;SDS011;9269;50.838;12.094;2023-04-06T06:50:44;7.27;;;6.57;;
18286;SDS011;9269;50.838;12.094;2023-04-06T06:53:15;7.63;;;6.93;;
18286;SDS011;9269;50.838;12.094;2023-04-06T06:55:44;7.67;;;6.83;;
18286;SDS011;9269;50.838;12.094;2023-04-06T06:58:13;7.77;;;7.00;;
18286;SDS011;9269;50.838;12.094;2023-04-06T07:00:41;7.13;;;6.43;;
18286;SDS011;9269;50.838;12.094;2023-04-06T07:03:10;10.83;;;8.30;;
18286;SDS011;9269;50.838;12.094;2023-04-06T07:05:40;7.03;;;6.33;;
18286;SDS011;9269;50.838;12.094;2023-04-06T07:08:15;7.80;;;6.80;;
18286;SDS011;9269;50.838;12.094;2023-04-06T07:10:44;7.00;;;6.30;;
18286;SDS011;9269;50.838;12.094;2023-04-06T07:13:12;10.17;;;6.80;;
18286;SDS011;9269;50.838;12.094;2023-04-06T07:15:47;7.90;;;7.10;;
18286;SDS011;9269;50.838;12.094;2023-04-06T07:18:16;9.97;;;6.90;;
18286;SDS011;9269;50.838;12.094;2023-04-06T07:20:46;7.77;;;7.00;;
18286;SDS011;9269;50.838;12.094;2023-04-06T07:23:18;8.50;;;7.33;;
18286;SDS011;9269;50.838;12.094;2023-04-06T07:25:46;8.70;;;7.07;;
18286;SDS011;9269;50.838;12.094;2023-04-06T07:28:14;9.97;;;7.93;;
18286;SDS011;9269;50.838;12.094;2023-04-06T07:30:43;8.23;;;7.17;;
18286;SDS011;9269;50.838;12.094;2023-04-06T07:33:11;7.93;;;7.03;;
18286;SDS011;9269;50.838;12.094;2023-04-06T07:35:40;8.93;;;7.10;;
18286;SDS011;9269;50.838;12.094;2023-04-06T07:38:11;7.73;;;7.00;;
18286;SDS011;9269;50.838;12.094;2023-04-06T07:40:47;8.00;;;6.93;;
18286;SDS011;9269;50.838;12.094;2023-04-06T07:43:15;8.03;;;7.23;;
18286;SDS011;9269;50.838;12.094;2023-04-06T07:45:43;8.07;;;6.73;;
18286;SDS011;9269;50.838;12.094;2023-04-06T07:48:12;7.13;;;6.43;;
18286;SDS011;9269;50.838;12.094;2023-04-06T07:50:40;7.30;;;6.70;;
18286;SDS011;9269;50.838;12.094;2023-04-06T07:53:08;7.43;;;6.37;;
18286;SDS011;9269;50.838;12.094;2023-04-06T07:55:38;6.70;;;5.97;;
18286;SDS011;9269;50.838;12.094;2023-04-06T07:58:06;6.73;;;6.03;;
18286;SDS011;9269;50.838;12.094;2023-04-06T08:00:35;6.97;;;6.03;;
18286;SDS011;9269;50.838;12.094;2023-04-06T08:03:03;7.93;;;6.33;;
18286;SDS011;9269;50.838;12.094;2023-04-06T08:05:31;6.57;;;5.80;;
18286;SDS011;9269;50.838;12.094;2023-04-06T08:08:00;6.77;;;6.07;;
18286;SDS011;9269;50.838;12.094;2023-04-06T08:10:34;7.30;;;6.60;;
18286;SDS011;9269;50.838;12.094;2023-04-06T08:13:19;7.33;;;6.63;;
18286;SDS011;9269;50.838;12.094;2023-04-06T08:15:47;6.10;;;5.53;;
18286;SDS011;9269;50.838;12.094;2023-04-06T08:18:16;7.07;;;5.80;;
18286;SDS011;9269;50.838;12.094;2023-04-06T08:20:44;6.43;;;5.70;;
18286;SDS011;9269;50.838;12.094;2023-04-06T08:23:13;6.73;;;5.97;;
18286;SDS011;9269;50.838;12.094;2023-04-06T08:25:43;6.03;;;5.43;;
18286;SDS011;9269;50.838;12.094;2023-04-06T08:28:13;6.37;;;5.70;;
18286;SDS011;9269;50.838;12.094;2023-04-06T08:30:42;6.70;;;5.93;;
18286;SDS011;9269;50.838;12.094;2023-04-06T08:33:10;6.57;;;5.97;;
18286;SDS011;9269;50.838;12.094;2023-04-06T08:35:40;6.60;;;6.00;;
18286;SDS011;9269;50.838;12.094;2023-04-06T08:38:09;7.57;;;6.07;;
18286;SDS011;9269;50.838;12.094;2023-04-06T08:40:39;5.97;;;5.40;;
18286;SDS011;9269;50.838;12.094;2023-04-06T08:43:12;7.10;;;5.57;;
18286;SDS011;9269;50.838;12.094;2023-04-06T08:45:42;5.70;;;5.20;;
18286;SDS011;9269;50.838;12.094;2023-04-06T08:48:11;6.33;;;5.43;;
18286;SDS011;9269;50.838;12.094;2023-04-06T08:50:39;6.23;;;5.47;;
18286;SDS011;9269;50.838;12.094;2023-04-06T08:53:08;7.37;;;5.60;;
18286;SDS011;9269;50.838;12.094;2023-04-06T08:55:41;5.73;;;5.13;;
18286;SDS011;9269;50.838;12.094;2023-04-06T08:58:12;6.27;;;5.60;;
18286;SDS011;9269;50.838;12.094;2023-04-06T09:00:57;5.60;;;5.10;;
18286;SDS011;9269;50.838;12.094;2023-04-06T09:03:26;5.87;;;4.70;;
18286;SDS011;9269;50.838;12.094;2023-04-06T09:05:56;5.63;;;5.13;;
18286;SDS011;9269;50.838;12.094;2023-04-06T09:08:24;6.00;;;5.23;;
18286;SDS011;9269;50.838;12.094;2023-04-06T09:10:53;6.03;;;5.47;;
18286;SDS011;9269;50.838;12.094;2023-04-06T09:13:22;6.13;;;5.33;;
18286;SDS011;9269;50.838;12.094;2023-04-06T09:15:58;6.17;;;5.40;;
18286;SDS011;9269;50.838;12.094;2023-04-06T09:18:30;7.03;;;5.33;;
18286;SDS011;9269;50.838;12.094;2023-04-06T09:21:00;5.67;;;5.07;;
18286;SDS011;9269;50.838;12.094;2023-04-06T09:23:29;5.17;;;4.67;;
18286;SDS011;9269;50.838;12.094;2023-04-06T09:26:07;4.93;;;4.23;;
18286;SDS011;9269;50.838;12.094;2023-04-06T09:28:43;4.67;;;4.27;;
18286;SDS011;9269;50.838;12.094;2023-04-06T09:31:13;4.30;;;3.90;;
18286;SDS011;9269;50.838;12.094;2023-04-06T09:33:43;4.50;;;4.10;;
18286;SDS011;9269;50.838;12.094;2023-04-06T09:36:12;5.20;;;4.03;;
18286;SDS011;9269;50.838;12.094;2023-04-06T09:38:52;4.70;;;4.30;;
18286;SDS011;9269;50.838;12.094;2023-04-06T09:41:22;6.03;;;5.13;;
18286;SDS011;9269;50.838;12.094;2023-04-06T09:44:01;6.10;;;5.60;;
18286;SDS011;9269;50.838;12.094;2023-04-06T09:46:31;5.13;;;4.60;;
18286;SDS011;9269;50.838;12.094;2023-04-06T09:49:16;5.83;;;5.23;;
18286;SDS011;9269;50.838;12.094;2023-04-06T09:51:47;5.20;;;4.70;;
18286;SDS011;9269;50.838;12.094;2023-04-06T09:54:22;5.73;;;5.23;;
18286;SDS011;9269;50.838;12.094;2023-04-06T09:56:52;6.10;;;5.57;;
18286;SDS011;9269;50.838;12.094;2023-04-06T09:59:29;6.33;;;5.73;;
18286;SDS011;9269;50.838;12.094;2023-04-06T10:02:06;6.23;;;5.73;;
18286;SDS011;9269;50.838;12.094;2023-04-06T10:04:42;6.80;;;6.20;;
18286;SDS011;9269;50.838;12.094;2023-04-06T10:07:33;6.27;;;4.97;;
18286;SDS011;9269;50.838;12.094;2023-04-06T10:10:15;6.03;;;5.40;;
18286;SDS011;9269;50.838;12.094;2023-04-06T10:12:44;5.93;;;5.43;;
18286;SDS011;9269;50.838;12.094;2023-04-06T10:15:17;6.07;;;5.47;;
18286;SDS011;9269;50.838;12.094;2023-04-06T10:17:48;5.83;;;5.33;;
18286;SDS011;9269;50.838;12.094;2023-04-06T10:20:20;6.27;;;4.60;;
18286;SDS011;9269;50.838;12.094;2023-04-06T10:22:53;5.70;;;4.77;;
18286;SDS011;9269;50.838;12.094;2023-04-06T10:25:27;5.70;;;5.20;;
18286;SDS011;9269;50.838;12.094;2023-04-06T10:27:59;5.30;;;4.73;;
18286;SDS011;9269;50.838;12.094;2023-04-06T10:30:29;5.50;;;5.00;;
18286;SDS011;9269;50.838;12.094;2023-04-06T10:32:58;4.93;;;4.53;;
18286;SDS011;9269;50.838;12.094;2023-04-06T10:35:36;5.43;;;4.87;;
18286;SDS011;9269;50.838;12.094;2023-04-06T10:38:06;5.97;;;5.30;;
18286;SDS011;9269;50.838;12.094;2023-04-06T10:40:35;5.50;;;5.10;;
18286;SDS011;9269;50.838;12.094;2023-04-06T10:43:08;6.03;;;4.90;;
18286;SDS011;9269;50.838;12.094;2023-04-06T10:45:39;5.03;;;4.53;;
18286;SDS011;9269;50.838;12.094;2023-04-06T10:48:13;5.87;;;5.33;;
18286;SDS011;9269;50.838;12.094;2023-04-06T10:50:43;5.70;;;5.03;;
18286;SDS011;9269;50.838;12.094;2023-04-06T10:53:20;6.33;;;5.10;;
18286;SDS011;9269;50.838;12.094;2023-04-06T10:55:49;4.90;;;4.40;;
18286;SDS011;9269;50.838;12.094;2023-04-06T10:58:18;5.20;;;4.80;;
18286;SDS011;9269;50.838;12.094;2023-04-06T11:00:50;5.50;;;4.90;;
18286;SDS011;9269;50.838;12.094;2023-04-06T11:03:22;6.07;;;5.57;;
18286;SDS011;9269;50.838;12.094;2023-04-06T11:05:54;4.97;;;4.47;;
18286;SDS011;9269;50.838;12.094;2023-04-06T11:08:29;5.60;;;5.10;;
18286;SDS011;9269;50.838;12.094;2023-04-06T11:11:05;5.60;;;5.13;;
18286;SDS011;9269;50.838;12.094;2023-04-06T11:13:38;5.87;;;4.77;;
18286;SDS011;9269;50.838;12.094;2023-04-06T11:16:13;6.07;;;5.57;;
18286;SDS011;9269;50.838;12.094;2023-04-06T11:18:49;5.20;;;4.70;;
18286;SDS011;9269;50.838;12.094;2023-04-06T11:21:30;5.93;;;5.43;;
18286;SDS011;9269;50.838;12.094;2023-04-06T11:24:04;5.00;;;4.60;;
18286;SDS011;9269;50.838;12.094;2023-04-06T11:26:37;6.83;;;5.40;;
18286;SDS011;9269;50.838;12.094;2023-04-06T11:29:07;6.53;;;5.93;;
18286;SDS011;9269;50.838;12.094;2023-04-06T11:31:44;6.53;;;5.93;;
18286;SDS011;9269;50.838;12.094;2023-04-06T11:34:16;6.30;;;5.70;;
18286;SDS011;9269;50.838;12.094;2023-04-06T11:36:46;6.37;;;5.07;;
18286;SDS011;9269;50.838;12.094;2023-04-06T11:39:18;5.10;;;4.70;;
18286;SDS011;9269;50.838;12.094;2023-04-06T11:41:51;5.20;;;4.70;;
18286;SDS011;9269;50.838;12.094;2023-04-06T11:44:28;5.97;;;5.17;;
18286;SDS011;9269;50.838;12.094;2023-04-06T11:47:02;5.57;;;5.17;;
18286;SDS011;9269;50.838;12.094;2023-04-06T11:49:32;6.00;;;5.50;;
18286;SDS011;9269;50.838;12.094;2023-04-06T11:52:01;5.53;;;5.13;;
18286;SDS011;9269;50.838;12.094;2023-04-06T11:54:30;6.30;;;5.70;;
18286;SDS011;9269;50.838;12.094;2023-04-06T11:56:59;6.27;;;5.77;;
18286;SDS011;9269;50.838;12.094;2023-04-06T11:59:29;6.60;;;6.00;;
18286;SDS011;9269;50.838;12.094;2023-04-06T12:01:58;5.73;;;5.17;;
18286;SDS011;9269;50.838;12.094;2023-04-06T12:04:28;6.93;;;6.30;;
18286;SDS011;9269;50.838;12.094;2023-04-06T12:06:57;6.50;;;5.80;;
18286;SDS011;9269;50.838;12.094;2023-04-06T12:09:42;6.30;;;5.80;;
18286;SDS011;9269;50.838;12.094;2023-04-06T12:12:11;6.73;;;6.07;;
18286;SDS011;9269;50.838;12.094;2023-04-06T12:14:40;6.40;;;5.80;;
18286;SDS011;9269;50.838;12.094;2023-04-06T12:17:08;6.63;;;6.03;;
18286;SDS011;9269;50.838;12.094;2023-04-06T12:19:38;5.90;;;5.40;;
18286;SDS011;9269;50.838;12.094;2023-04-06T12:22:07;6.37;;;5.87;;
18286;SDS011;9269;50.838;12.094;2023-04-06T12:24:36;6.17;;;4.80;;
18286;SDS011;9269;50.838;12.094;2023-04-06T12:27:04;5.70;;;5.20;;
18286;SDS011;9269;50.838;12.094;2023-04-06T12:29:36;5.43;;;5.03;;
18286;SDS011;9269;50.838;12.094;2023-04-06T12:32:12;5.97;;;5.47;;
18286;SDS011;9269;50.838;12.094;2023-04-06T12:34:44;6.63;;;6.10;;
18286;SDS011;9269;50.838;12.094;2023-04-06T12:37:16;8.23;;;7.43;;
18286;SDS011;9269;50.838;12.094;2023-04-06T12:39:45;6.67;;;6.07;;
18286;SDS011;9269;50.838;12.094;2023-04-06T12:42:14;6.80;;;6.17;;
18286;SDS011;9269;50.838;12.094;2023-04-06T12:44:43;7.43;;;6.77;;
18286;SDS011;9269;50.838;12.094;2023-04-06T12:47:13;6.00;;;5.33;;
18286;SDS011;9269;50.838;12.094;2023-04-06T12:49:42;6.40;;;5.80;;
18286;SDS011;9269;50.838;12.094;2023-04-06T12:52:12;6.43;;;5.83;;
18286;SDS011;9269;50.838;12.094;2023-04-06T12:54:41;6.17;;;5.67;;
18286;SDS011;9269;50.838;12.094;2023-04-06T12:57:09;6.40;;;5.80;;
18286;SDS011;9269;50.838;12.094;2023-04-06T12:59:40;5.50;;;5.00;;
18286;SDS011;9269;50.838;12.094;2023-04-06T13:02:11;5.57;;;5.13;;
18286;SDS011;9269;50.838;12.094;2023-04-06T13:04:40;6.10;;;5.60;;
18286;SDS011;9269;50.838;12.094;2023-04-06T13:07:09;5.23;;;4.83;;
18286;SDS011;9269;50.838;12.094;2023-04-06T13:09:38;5.93;;;5.43;;
18286;SDS011;9269;50.838;12.094;2023-04-06T13:12:06;5.47;;;5.00;;
18286;SDS011;9269;50.838;12.094;2023-04-06T13:14:34;5.37;;;4.87;;
18286;SDS011;9269;50.838;12.094;2023-04-06T13:17:03;5.17;;;4.67;;
18286;SDS011;9269;50.838;12.094;2023-04-06T13:19:33;5.37;;;4.97;;
18286;SDS011;9269;50.838;12.094;2023-04-06T13:22:02;5.50;;;5.10;;
18286;SDS011;9269;50.838;12.094;2023-04-06T13:24:31;6.30;;;5.80;;
18286;SDS011;9269;50.838;12.094;2023-04-06T13:27:00;6.07;;;5.47;;
18286;SDS011;9269;50.838;12.094;2023-04-06T13:29:29;5.80;;;5.30;;
18286;SDS011;9269;50.838;12.094;2023-04-06T13:31:58;5.50;;;5.00;;
18286;SDS011;9269;50.838;12.094;2023-04-06T13:34:26;6.33;;;5.73;;
18286;SDS011;9269;50.838;12.094;2023-04-06T13:36:55;4.93;;;4.60;;
18286;SDS011;9269;50.838;12.094;2023-04-06T13:39:23;6.13;;;5.53;;
18286;SDS011;9269;50.838;12.094;2023-04-06T13:41:54;5.20;;;4.70;;
18286;SDS011;9269;50.838;12.094;2023-04-06T13:44:25;51.13;;;34.83;;
18286;SDS011;9269;50.838;12.094;2023-04-06T13:46:53;10.80;;;8.83;;
18286;SDS011;9269;50.838;12.094;2023-04-06T13:49:21;22.67;;;17.00;;
18286;SDS011;9269;50.838;12.094;2023-04-06T13:51:49;9.83;;;8.20;;
18286;SDS011;9269;50.838;12.094;2023-04-06T13:54:19;7.50;;;6.80;;
18286;SDS011;9269;50.838;12.094;2023-04-06T13:56:47;7.47;;;6.80;;
18286;SDS011;9269;50.838;12.094;2023-04-06T13:59:17;6.27;;;5.70;;
18286;SDS011;9269;50.838;12.094;2023-04-06T14:01:47;6.23;;;5.70;;
18286;SDS011;9269;50.838;12.094;2023-04-06T14:04:16;5.47;;;5.03;;
18286;SDS011;9269;50.838;12.094;2023-04-06T14:06:44;6.77;;;6.17;;
18286;SDS011;9269;50.838;12.094;2023-04-06T14:09:13;6.27;;;5.67;;
18286;SDS011;9269;50.838;12.094;2023-04-06T14:11:41;6.27;;;5.77;;
18286;SDS011;9269;50.838;12.094;2023-04-06T14:14:10;6.60;;;6.00;;
18286;SDS011;9269;50.838;12.094;2023-04-06T14:16:42;7.33;;;6.73;;
18286;SDS011;9269;50.838;12.094;2023-04-06T14:19:12;6.20;;;5.70;;
18286;SDS011;9269;50.838;12.094;2023-04-06T14:21:41;6.43;;;5.83;;
18286;SDS011;9269;50.838;12.094;2023-04-06T14:24:10;5.63;;;5.00;;
18286;SDS011;9269;50.838;12.094;2023-04-06T14:26:40;6.03;;;5.53;;
18286;SDS011;9269;50.838;12.094;2023-04-06T14:29:13;4.87;;;4.47;;
18286;SDS011;9269;50.838;12.094;2023-04-06T14:31:44;5.80;;;5.27;;
18286;SDS011;9269;50.838;12.094;2023-04-06T14:34:15;5.90;;;5.40;;
18286;SDS011;9269;50.838;12.094;2023-04-06T14:36:43;6.57;;;5.97;;
18286;SDS011;9269;50.838;12.094;2023-04-06T14:39:12;7.53;;;6.90;;
18286;SDS011;9269;50.838;12.094;2023-04-06T14:41:40;7.97;;;7.20;;
18286;SDS011;9269;50.838;12.094;2023-04-06T14:44:09;7.03;;;6.33;;
18286;SDS011;9269;50.838;12.094;2023-04-06T14:46:38;7.37;;;6.67;;
18286;SDS011;9269;50.838;12.094;2023-04-06T14:49:08;6.00;;;5.50;;
18286;SDS011;9269;50.838;12.094;2023-04-06T14:51:37;6.20;;;5.67;;
18286;SDS011;9269;50.838;12.094;2023-04-06T14:54:08;5.67;;;5.17;;
18286;SDS011;9269;50.838;12.094;2023-04-06T14:56:36;6.00;;;5.40;;
18286;SDS011;9269;50.838;12.094;2023-04-06T14:59:05;6.50;;;5.40;;
18286;SDS011;9269;50.838;12.094;2023-04-06T15:01:33;6.37;;;5.83;;
18286;SDS011;9269;50.838;12.094;2023-04-06T15:04:04;11.67;;;10.57;;